Aérodrome :
LOGIN :

S'inscrire | Disclaimer

   EN    FR    IT 

 










Légende :    VFR   VFR Marginal   IFR   IFR Intensif   IFR Très Intensif
Visi : 
Plafond : 
>= 8 km
>= 3000ft
5 à 8 km
1000 à 3000 ft
1500m à 5 km
500 à 1000 ft
800 à 1500m
200 à 500 ft
< 800m
< 200 ft
Symboles :   Orages  Brouillard  Fortes neiges  Fortes précipitations  Vent > 20 kt
SIGMETs :   Divers  Orages  Givrage  Turbulence  Onde Orograph.  Cendres Volcan.







- Altitude de l'aérodrome : 479 ft
- Code IATA : DOL
- Voir les cartes d'approche


LFRG - Deauville

DERNIER METAR :
  • 152230Z AUTO 21010KT 9999 SCT032 BKN038 04/03 Q1008

METARs EXPIRÉS :
  • 152200Z AUTO 21011KT 9999 FEW028 OVC035 04/04 Q1008
  • 152130Z AUTO 21011KT 9999 FEW007 BKN030 BKN036 04/04 Q1007
  • 152100Z AUTO 21010KT 9999 FEW005 SCT011 BKN017 04/03 Q1007 BECMG BKN012
  • 152030Z AUTO 22009KT 170V250 9999 BKN004 OVC009 04/04 Q1007 BECMG BKN012
  • 152000Z AUTO 19009KT 160V240 9999 BKN004 OVC009 03/03 Q1007 BECMG BKN012

TAF AMD TAF LFRG
Valide du 15 à 17h jusqu'au 16 à 00h UTC


151718Z 1517/1524 14015G25KT 5000 RA BKN012
TEMPO 1517/1520 2000 RA OVC003
BECMG 1520/1522 20010KT 9999 NSW
ATIS : +33 2 31 65 65 36
Pas de NOTAMs connus pour ce terrain.
2 SIGMETs publiés pour la FIR Paris (LFFF) :
 
Givrage fort avec pluie surfondue
LFFF SIGMET 7 VALID 152000/160000 LFPW
LFFF PARIS FIR/UIR SEV ICE (FZRA) FCST WI N5100 E00145 - N5115 E00200 - N4930 E00600 - N4900 E00445 - N4830 E00530 - N4730 E00415 - N4630 E00445 - N4630 E00400 - N4815 E00400 - N4945 E00145 - N5100 E00145 SFC/FL020 MOV E 15KT NC=
Turbulence forte
LFFF SIGMET 6 VALID 151900/152300 LFPW
LFFF PARIS FIR/UIR SEV TURB FCST WI N5000 W00015 - N5115 E00200 - N5015 E00415 - N5000 E00400 - N5000 E00145 - N4930 E00030 - N5000 W00015 SFC/FL050 MOV NE 20KT NC=



MET'MAP, la Météo Aéronautique d'un coup d'oeil ! - Copyright ORBIFLY Décembre 2007 - Disclaimer

ORBIFLY MET'MAP TEAM :

Programmation & Développement : Alexandra Zaïnal
Conception & Développement : Baudouin d'Aumeries
Co-Programmation & Développement : Marc-Olivier Méhu
Soutien technique & logistique : Manuel Goepfert

Contact : metmap@orbifly.com




SOURCES & CREDITS :

   NOAA